sensor_id;sensor_type;location;lat;lon;timestamp;P1;durP1;ratioP1;P2;durP2;ratioP2
19189;SDS011;9727;50.200;19.038;2022-12-07T00:02:03;20.37;;;11.97;;
19189;SDS011;9727;50.200;19.038;2022-12-07T00:04:29;20.20;;;11.60;;
19189;SDS011;9727;50.200;19.038;2022-12-07T00:06:56;19.83;;;12.40;;
19189;SDS011;9727;50.200;19.038;2022-12-07T00:09:22;17.97;;;11.70;;
19189;SDS011;9727;50.200;19.038;2022-12-07T00:11:50;22.27;;;12.50;;
19189;SDS011;9727;50.200;19.038;2022-12-07T00:14:17;19.97;;;12.03;;
19189;SDS011;9727;50.200;19.038;2022-12-07T00:16:44;21.70;;;12.57;;
19189;SDS011;9727;50.200;19.038;2022-12-07T00:19:11;20.30;;;11.83;;
19189;SDS011;9727;50.200;19.038;2022-12-07T00:21:38;21.33;;;12.27;;
19189;SDS011;9727;50.200;19.038;2022-12-07T00:24:05;19.87;;;12.73;;
19189;SDS011;9727;50.200;19.038;2022-12-07T00:26:35;22.37;;;13.13;;
19189;SDS011;9727;50.200;19.038;2022-12-07T00:29:05;20.60;;;12.70;;
19189;SDS011;9727;50.200;19.038;2022-12-07T00:31:33;23.17;;;13.17;;
19189;SDS011;9727;50.200;19.038;2022-12-07T00:34:01;22.37;;;12.80;;
19189;SDS011;9727;50.200;19.038;2022-12-07T00:36:27;22.67;;;12.03;;
19189;SDS011;9727;50.200;19.038;2022-12-07T00:38:54;22.10;;;13.00;;
19189;SDS011;9727;50.200;19.038;2022-12-07T00:41:22;19.73;;;11.97;;
19189;SDS011;9727;50.200;19.038;2022-12-07T00:43:49;20.83;;;12.33;;
19189;SDS011;9727;50.200;19.038;2022-12-07T00:46:18;23.97;;;14.27;;
19189;SDS011;9727;50.200;19.038;2022-12-07T00:48:45;21.20;;;12.67;;
19189;SDS011;9727;50.200;19.038;2022-12-07T00:51:12;25.53;;;13.50;;
19189;SDS011;9727;50.200;19.038;2022-12-07T00:53:39;24.83;;;14.70;;
19189;SDS011;9727;50.200;19.038;2022-12-07T00:56:06;28.57;;;15.43;;
19189;SDS011;9727;50.200;19.038;2022-12-07T00:58:43;24.33;;;15.80;;
19189;SDS011;9727;50.200;19.038;2022-12-07T01:01:10;28.63;;;17.30;;
19189;SDS011;9727;50.200;19.038;2022-12-07T01:03:38;30.60;;;18.10;;
19189;SDS011;9727;50.200;19.038;2022-12-07T01:06:05;33.97;;;19.90;;
19189;SDS011;9727;50.200;19.038;2022-12-07T01:08:32;32.83;;;20.07;;
19189;SDS011;9727;50.200;19.038;2022-12-07T01:11:06;32.53;;;19.73;;
19189;SDS011;9727;50.200;19.038;2022-12-07T01:13:33;30.90;;;19.20;;
19189;SDS011;9727;50.200;19.038;2022-12-07T01:16:03;31.87;;;19.77;;
19189;SDS011;9727;50.200;19.038;2022-12-07T01:18:30;36.07;;;20.93;;
19189;SDS011;9727;50.200;19.038;2022-12-07T01:21:04;37.07;;;20.80;;
19189;SDS011;9727;50.200;19.038;2022-12-07T01:23:31;36.13;;;21.30;;
19189;SDS011;9727;50.200;19.038;2022-12-07T01:26:00;34.80;;;20.30;;
19189;SDS011;9727;50.200;19.038;2022-12-07T01:28:27;39.30;;;22.13;;
19189;SDS011;9727;50.200;19.038;2022-12-07T01:30:55;35.83;;;20.73;;
19189;SDS011;9727;50.200;19.038;2022-12-07T01:33:21;36.13;;;21.07;;
19189;SDS011;9727;50.200;19.038;2022-12-07T01:35:48;38.67;;;22.03;;
19189;SDS011;9727;50.200;19.038;2022-12-07T01:38:17;40.63;;;22.93;;
19189;SDS011;9727;50.200;19.038;2022-12-07T01:40:44;39.47;;;21.67;;
19189;SDS011;9727;50.200;19.038;2022-12-07T01:43:13;37.77;;;22.63;;
19189;SDS011;9727;50.200;19.038;2022-12-07T01:45:41;41.07;;;22.40;;
19189;SDS011;9727;50.200;19.038;2022-12-07T01:48:07;40.70;;;22.30;;
19189;SDS011;9727;50.200;19.038;2022-12-07T01:50:38;37.60;;;21.97;;
19189;SDS011;9727;50.200;19.038;2022-12-07T01:53:05;38.23;;;21.27;;
19189;SDS011;9727;50.200;19.038;2022-12-07T01:55:38;42.13;;;22.10;;
19189;SDS011;9727;50.200;19.038;2022-12-07T01:58:06;38.67;;;21.90;;
19189;SDS011;9727;50.200;19.038;2022-12-07T02:00:33;38.67;;;21.93;;
19189;SDS011;9727;50.200;19.038;2022-12-07T02:03:01;38.57;;;22.17;;
19189;SDS011;9727;50.200;19.038;2022-12-07T02:05:30;39.17;;;21.53;;
19189;SDS011;9727;50.200;19.038;2022-12-07T02:07:59;41.70;;;22.47;;
19189;SDS011;9727;50.200;19.038;2022-12-07T02:10:27;37.00;;;21.43;;
19189;SDS011;9727;50.200;19.038;2022-12-07T02:12:56;36.90;;;21.57;;
19189;SDS011;9727;50.200;19.038;2022-12-07T02:15:24;40.83;;;22.10;;
19189;SDS011;9727;50.200;19.038;2022-12-07T02:17:54;38.23;;;21.77;;
19189;SDS011;9727;50.200;19.038;2022-12-07T02:20:27;37.80;;;22.43;;
19189;SDS011;9727;50.200;19.038;2022-12-07T02:23:00;43.07;;;22.70;;
19189;SDS011;9727;50.200;19.038;2022-12-07T02:25:33;34.80;;;20.87;;
19189;SDS011;9727;50.200;19.038;2022-12-07T02:28:05;39.10;;;22.50;;
19189;SDS011;9727;50.200;19.038;2022-12-07T02:30:35;41.87;;;24.17;;
19189;SDS011;9727;50.200;19.038;2022-12-07T02:33:05;42.40;;;25.33;;
19189;SDS011;9727;50.200;19.038;2022-12-07T02:35:39;46.40;;;26.33;;
19189;SDS011;9727;50.200;19.038;2022-12-07T02:38:08;47.07;;;27.57;;
19189;SDS011;9727;50.200;19.038;2022-12-07T02:40:38;44.13;;;25.90;;
19189;SDS011;9727;50.200;19.038;2022-12-07T02:43:07;45.23;;;25.70;;
19189;SDS011;9727;50.200;19.038;2022-12-07T02:45:36;45.23;;;24.87;;
19189;SDS011;9727;50.200;19.038;2022-12-07T02:48:05;43.50;;;26.20;;
19189;SDS011;9727;50.200;19.038;2022-12-07T02:50:38;39.10;;;24.40;;
19189;SDS011;9727;50.200;19.038;2022-12-07T02:53:05;39.37;;;22.93;;
19189;SDS011;9727;50.200;19.038;2022-12-07T02:55:33;34.93;;;20.93;;
19189;SDS011;9727;50.200;19.038;2022-12-07T02:58:13;35.17;;;21.37;;
19189;SDS011;9727;50.200;19.038;2022-12-07T03:00:51;37.37;;;21.27;;
19189;SDS011;9727;50.200;19.038;2022-12-07T03:03:19;35.20;;;21.53;;
19189;SDS011;9727;50.200;19.038;2022-12-07T03:08:29;33.93;;;18.80;;
19189;SDS011;9727;50.200;19.038;2022-12-07T03:10:58;29.57;;;18.80;;
19189;SDS011;9727;50.200;19.038;2022-12-07T03:13:26;30.27;;;18.27;;
19189;SDS011;9727;50.200;19.038;2022-12-07T03:15:57;32.97;;;19.07;;
19189;SDS011;9727;50.200;19.038;2022-12-07T03:18:25;27.43;;;16.77;;
19189;SDS011;9727;50.200;19.038;2022-12-07T03:20:55;29.07;;;17.87;;
19189;SDS011;9727;50.200;19.038;2022-12-07T03:23:23;32.50;;;17.87;;
19189;SDS011;9727;50.200;19.038;2022-12-07T03:25:52;26.53;;;16.20;;
19189;SDS011;9727;50.200;19.038;2022-12-07T03:28:21;26.80;;;15.67;;
19189;SDS011;9727;50.200;19.038;2022-12-07T03:30:49;24.93;;;15.23;;
19189;SDS011;9727;50.200;19.038;2022-12-07T03:33:19;25.07;;;15.60;;
19189;SDS011;9727;50.200;19.038;2022-12-07T03:35:47;22.93;;;14.10;;
19189;SDS011;9727;50.200;19.038;2022-12-07T03:38:20;23.57;;;13.60;;
19189;SDS011;9727;50.200;19.038;2022-12-07T03:40:54;23.77;;;14.00;;
19189;SDS011;9727;50.200;19.038;2022-12-07T03:43:25;23.50;;;13.80;;
19189;SDS011;9727;50.200;19.038;2022-12-07T03:45:56;22.13;;;13.67;;
19189;SDS011;9727;50.200;19.038;2022-12-07T03:48:27;22.73;;;13.40;;
19189;SDS011;9727;50.200;19.038;2022-12-07T03:50:58;22.73;;;12.87;;
19189;SDS011;9727;50.200;19.038;2022-12-07T03:53:28;20.33;;;12.10;;
19189;SDS011;9727;50.200;19.038;2022-12-07T03:55:56;22.47;;;13.07;;
19189;SDS011;9727;50.200;19.038;2022-12-07T03:58:23;23.73;;;13.63;;
19189;SDS011;9727;50.200;19.038;2022-12-07T04:00:51;25.13;;;13.57;;
19189;SDS011;9727;50.200;19.038;2022-12-07T04:03:18;23.63;;;14.50;;
19189;SDS011;9727;50.200;19.038;2022-12-07T04:05:46;24.57;;;13.97;;
19189;SDS011;9727;50.200;19.038;2022-12-07T04:08:23;24.30;;;13.97;;
19189;SDS011;9727;50.200;19.038;2022-12-07T04:10:49;26.40;;;14.33;;
19189;SDS011;9727;50.200;19.038;2022-12-07T04:13:16;25.53;;;14.53;;
19189;SDS011;9727;50.200;19.038;2022-12-07T04:15:49;25.10;;;14.77;;
19189;SDS011;9727;50.200;19.038;2022-12-07T04:18:15;26.37;;;15.00;;
19189;SDS011;9727;50.200;19.038;2022-12-07T04:20:42;24.27;;;14.63;;
19189;SDS011;9727;50.200;19.038;2022-12-07T04:23:10;30.83;;;16.23;;
19189;SDS011;9727;50.200;19.038;2022-12-07T04:25:36;29.47;;;16.40;;
19189;SDS011;9727;50.200;19.038;2022-12-07T04:28:03;29.50;;;16.17;;
19189;SDS011;9727;50.200;19.038;2022-12-07T04:30:29;34.03;;;16.97;;
19189;SDS011;9727;50.200;19.038;2022-12-07T04:32:56;30.07;;;16.17;;
19189;SDS011;9727;50.200;19.038;2022-12-07T04:35:22;32.03;;;16.93;;
19189;SDS011;9727;50.200;19.038;2022-12-07T04:37:49;30.03;;;16.73;;
19189;SDS011;9727;50.200;19.038;2022-12-07T04:40:17;31.03;;;16.40;;
19189;SDS011;9727;50.200;19.038;2022-12-07T04:42:44;30.57;;;17.00;;
19189;SDS011;9727;50.200;19.038;2022-12-07T04:45:10;31.17;;;16.43;;
19189;SDS011;9727;50.200;19.038;2022-12-07T04:47:37;29.13;;;16.60;;
19189;SDS011;9727;50.200;19.038;2022-12-07T04:50:04;28.40;;;15.20;;
19189;SDS011;9727;50.200;19.038;2022-12-07T04:52:30;27.43;;;15.37;;
19189;SDS011;9727;50.200;19.038;2022-12-07T04:54:58;27.37;;;14.87;;
19189;SDS011;9727;50.200;19.038;2022-12-07T04:57:26;26.90;;;14.33;;
19189;SDS011;9727;50.200;19.038;2022-12-07T04:59:53;26.70;;;13.93;;
19189;SDS011;9727;50.200;19.038;2022-12-07T05:02:19;25.57;;;13.13;;
19189;SDS011;9727;50.200;19.038;2022-12-07T05:04:46;25.60;;;13.73;;
19189;SDS011;9727;50.200;19.038;2022-12-07T05:07:12;23.37;;;13.47;;
19189;SDS011;9727;50.200;19.038;2022-12-07T05:09:39;26.03;;;14.17;;
19189;SDS011;9727;50.200;19.038;2022-12-07T05:12:06;22.40;;;12.90;;
19189;SDS011;9727;50.200;19.038;2022-12-07T05:14:34;24.23;;;13.67;;
19189;SDS011;9727;50.200;19.038;2022-12-07T05:17:01;24.33;;;13.90;;
19189;SDS011;9727;50.200;19.038;2022-12-07T05:19:28;24.47;;;13.80;;
19189;SDS011;9727;50.200;19.038;2022-12-07T05:21:54;21.03;;;12.27;;
19189;SDS011;9727;50.200;19.038;2022-12-07T05:24:21;28.67;;;14.67;;
19189;SDS011;9727;50.200;19.038;2022-12-07T05:26:47;25.87;;;14.70;;
19189;SDS011;9727;50.200;19.038;2022-12-07T05:29:15;25.23;;;14.50;;
19189;SDS011;9727;50.200;19.038;2022-12-07T05:31:45;27.43;;;14.90;;
19189;SDS011;9727;50.200;19.038;2022-12-07T05:34:20;27.60;;;14.53;;
19189;SDS011;9727;50.200;19.038;2022-12-07T05:36:59;25.83;;;13.90;;
19189;SDS011;9727;50.200;19.038;2022-12-07T05:39:25;24.90;;;14.13;;
19189;SDS011;9727;50.200;19.038;2022-12-07T05:41:52;28.73;;;14.57;;
19189;SDS011;9727;50.200;19.038;2022-12-07T05:44:36;28.03;;;13.80;;
19189;SDS011;9727;50.200;19.038;2022-12-07T05:47:14;25.43;;;14.33;;
19189;SDS011;9727;50.200;19.038;2022-12-07T05:49:43;29.23;;;15.03;;
19189;SDS011;9727;50.200;19.038;2022-12-07T05:52:09;28.97;;;15.10;;
19189;SDS011;9727;50.200;19.038;2022-12-07T05:54:36;27.47;;;15.50;;
19189;SDS011;9727;50.200;19.038;2022-12-07T05:57:09;26.93;;;15.63;;
19189;SDS011;9727;50.200;19.038;2022-12-07T05:59:38;31.47;;;17.00;;
19189;SDS011;9727;50.200;19.038;2022-12-07T06:02:06;30.70;;;15.57;;
19189;SDS011;9727;50.200;19.038;2022-12-07T06:04:34;29.57;;;15.77;;
19189;SDS011;9727;50.200;19.038;2022-12-07T06:07:01;31.53;;;16.43;;
19189;SDS011;9727;50.200;19.038;2022-12-07T06:09:36;30.20;;;17.13;;
19189;SDS011;9727;50.200;19.038;2022-12-07T06:12:04;39.60;;;18.63;;
19189;SDS011;9727;50.200;19.038;2022-12-07T06:14:49;33.27;;;17.43;;
19189;SDS011;9727;50.200;19.038;2022-12-07T06:17:17;33.33;;;18.10;;
19189;SDS011;9727;50.200;19.038;2022-12-07T06:19:44;36.13;;;18.60;;
19189;SDS011;9727;50.200;19.038;2022-12-07T06:22:10;35.57;;;17.40;;
19189;SDS011;9727;50.200;19.038;2022-12-07T06:24:37;41.57;;;18.80;;
19189;SDS011;9727;50.200;19.038;2022-12-07T06:27:04;33.67;;;17.47;;
19189;SDS011;9727;50.200;19.038;2022-12-07T06:29:31;34.13;;;17.43;;
19189;SDS011;9727;50.200;19.038;2022-12-07T06:32:00;31.03;;;16.07;;
19189;SDS011;9727;50.200;19.038;2022-12-07T06:34:28;32.80;;;16.73;;
19189;SDS011;9727;50.200;19.038;2022-12-07T06:36:55;26.57;;;13.50;;
19189;SDS011;9727;50.200;19.038;2022-12-07T06:39:22;25.57;;;12.40;;
19189;SDS011;9727;50.200;19.038;2022-12-07T06:41:49;22.77;;;12.23;;
19189;SDS011;9727;50.200;19.038;2022-12-07T06:44:16;20.40;;;11.53;;
19189;SDS011;9727;50.200;19.038;2022-12-07T06:46:43;23.10;;;11.57;;
19189;SDS011;9727;50.200;19.038;2022-12-07T06:49:10;19.47;;;10.93;;
19189;SDS011;9727;50.200;19.038;2022-12-07T06:51:38;18.73;;;11.00;;
19189;SDS011;9727;50.200;19.038;2022-12-07T06:54:06;19.53;;;10.70;;
19189;SDS011;9727;50.200;19.038;2022-12-07T06:56:33;16.73;;;10.13;;
19189;SDS011;9727;50.200;19.038;2022-12-07T06:59:00;17.73;;;9.57;;
19189;SDS011;9727;50.200;19.038;2022-12-07T07:01:26;20.17;;;9.60;;
19189;SDS011;9727;50.200;19.038;2022-12-07T07:03:53;15.10;;;9.53;;
19189;SDS011;9727;50.200;19.038;2022-12-07T07:06:19;17.67;;;9.30;;
19189;SDS011;9727;50.200;19.038;2022-12-07T07:08:50;17.37;;;8.73;;
19189;SDS011;9727;50.200;19.038;2022-12-07T07:11:17;15.03;;;8.57;;
19189;SDS011;9727;50.200;19.038;2022-12-07T07:13:43;14.23;;;8.27;;
19189;SDS011;9727;50.200;19.038;2022-12-07T07:16:11;14.57;;;8.70;;
19189;SDS011;9727;50.200;19.038;2022-12-07T07:18:38;16.77;;;8.70;;
19189;SDS011;9727;50.200;19.038;2022-12-07T07:21:07;15.07;;;9.10;;
19189;SDS011;9727;50.200;19.038;2022-12-07T07:23:38;17.83;;;9.07;;
19189;SDS011;9727;50.200;19.038;2022-12-07T07:26:16;19.70;;;9.97;;
19189;SDS011;9727;50.200;19.038;2022-12-07T07:28:45;19.97;;;9.60;;
19189;SDS011;9727;50.200;19.038;2022-12-07T07:31:12;18.67;;;10.33;;
19189;SDS011;9727;50.200;19.038;2022-12-07T07:33:39;20.37;;;10.80;;
19189;SDS011;9727;50.200;19.038;2022-12-07T07:36:08;21.20;;;10.70;;
19189;SDS011;9727;50.200;19.038;2022-12-07T07:38:36;18.77;;;10.43;;
19189;SDS011;9727;50.200;19.038;2022-12-07T07:41:04;20.93;;;10.73;;
19189;SDS011;9727;50.200;19.038;2022-12-07T07:43:34;19.30;;;11.30;;
19189;SDS011;9727;50.200;19.038;2022-12-07T07:46:02;19.53;;;10.87;;
19189;SDS011;9727;50.200;19.038;2022-12-07T07:48:28;18.47;;;10.87;;
19189;SDS011;9727;50.200;19.038;2022-12-07T07:50:56;19.53;;;11.83;;
19189;SDS011;9727;50.200;19.038;2022-12-07T07:53:25;17.20;;;10.33;;
19189;SDS011;9727;50.200;19.038;2022-12-07T07:55:53;16.77;;;10.37;;
19189;SDS011;9727;50.200;19.038;2022-12-07T07:58:20;16.40;;;9.80;;
19189;SDS011;9727;50.200;19.038;2022-12-07T08:00:48;18.23;;;10.37;;
19189;SDS011;9727;50.200;19.038;2022-12-07T08:03:15;19.47;;;10.83;;
19189;SDS011;9727;50.200;19.038;2022-12-07T08:05:42;15.47;;;10.20;;
19189;SDS011;9727;50.200;19.038;2022-12-07T08:08:08;18.50;;;10.07;;
19189;SDS011;9727;50.200;19.038;2022-12-07T08:10:36;18.03;;;11.27;;
19189;SDS011;9727;50.200;19.038;2022-12-07T08:13:23;17.93;;;10.13;;
19189;SDS011;9727;50.200;19.038;2022-12-07T08:16:08;16.63;;;10.10;;
19189;SDS011;9727;50.200;19.038;2022-12-07T08:18:50;16.13;;;10.10;;
19189;SDS011;9727;50.200;19.038;2022-12-07T08:21:17;18.90;;;10.40;;
19189;SDS011;9727;50.200;19.038;2022-12-07T08:23:45;18.87;;;10.80;;
19189;SDS011;9727;50.200;19.038;2022-12-07T08:26:16;18.27;;;10.87;;
19189;SDS011;9727;50.200;19.038;2022-12-07T08:28:43;18.43;;;10.73;;
19189;SDS011;9727;50.200;19.038;2022-12-07T08:31:20;20.57;;;11.20;;
19189;SDS011;9727;50.200;19.038;2022-12-07T08:33:47;20.47;;;11.60;;
19189;SDS011;9727;50.200;19.038;2022-12-07T08:36:14;19.60;;;11.07;;
19189;SDS011;9727;50.200;19.038;2022-12-07T08:38:41;19.17;;;11.80;;
19189;SDS011;9727;50.200;19.038;2022-12-07T08:41:08;20.10;;;11.80;;
19189;SDS011;9727;50.200;19.038;2022-12-07T08:43:38;21.97;;;12.23;;
19189;SDS011;9727;50.200;19.038;2022-12-07T08:46:06;20.90;;;12.90;;
19189;SDS011;9727;50.200;19.038;2022-12-07T08:48:39;25.10;;;14.97;;
19189;SDS011;9727;50.200;19.038;2022-12-07T08:51:16;27.27;;;16.13;;
19189;SDS011;9727;50.200;19.038;2022-12-07T08:53:44;29.73;;;17.80;;
19189;SDS011;9727;50.200;19.038;2022-12-07T08:56:13;29.13;;;17.27;;
19189;SDS011;9727;50.200;19.038;2022-12-07T08:58:40;26.70;;;16.03;;
19189;SDS011;9727;50.200;19.038;2022-12-07T09:01:07;27.67;;;15.67;;
19189;SDS011;9727;50.200;19.038;2022-12-07T09:03:34;26.77;;;14.93;;
19189;SDS011;9727;50.200;19.038;2022-12-07T09:06:07;27.53;;;15.60;;
19189;SDS011;9727;50.200;19.038;2022-12-07T09:08:34;25.73;;;14.70;;
19189;SDS011;9727;50.200;19.038;2022-12-07T09:11:02;28.40;;;15.97;;
19189;SDS011;9727;50.200;19.038;2022-12-07T09:13:29;27.70;;;15.53;;
19189;SDS011;9727;50.200;19.038;2022-12-07T09:15:58;28.60;;;16.40;;
19189;SDS011;9727;50.200;19.038;2022-12-07T09:18:25;30.63;;;16.40;;
19189;SDS011;9727;50.200;19.038;2022-12-07T09:20:55;26.73;;;15.60;;
19189;SDS011;9727;50.200;19.038;2022-12-07T09:23:23;32.43;;;17.80;;
19189;SDS011;9727;50.200;19.038;2022-12-07T09:25:50;34.27;;;17.80;;
19189;SDS011;9727;50.200;19.038;2022-12-07T09:28:17;33.27;;;18.17;;
19189;SDS011;9727;50.200;19.038;2022-12-07T09:30:45;29.17;;;17.50;;
19189;SDS011;9727;50.200;19.038;2022-12-07T09:33:12;26.57;;;16.30;;
19189;SDS011;9727;50.200;19.038;2022-12-07T09:35:43;28.23;;;16.43;;
19189;SDS011;9727;50.200;19.038;2022-12-07T09:38:10;27.67;;;15.27;;
19189;SDS011;9727;50.200;19.038;2022-12-07T09:40:38;31.73;;;17.10;;
19189;SDS011;9727;50.200;19.038;2022-12-07T09:43:05;30.70;;;16.83;;
19189;SDS011;9727;50.200;19.038;2022-12-07T09:45:34;26.90;;;16.33;;
19189;SDS011;9727;50.200;19.038;2022-12-07T09:48:04;25.77;;;15.77;;
19189;SDS011;9727;50.200;19.038;2022-12-07T09:50:31;30.13;;;18.33;;
19189;SDS011;9727;50.200;19.038;2022-12-07T09:53:03;30.67;;;19.33;;
19189;SDS011;9727;50.200;19.038;2022-12-07T09:55:33;31.37;;;19.73;;
19189;SDS011;9727;50.200;19.038;2022-12-07T09:58:01;30.23;;;20.10;;
19189;SDS011;9727;50.200;19.038;2022-12-07T10:00:29;33.13;;;20.00;;
19189;SDS011;9727;50.200;19.038;2022-12-07T10:02:57;33.77;;;20.53;;
19189;SDS011;9727;50.200;19.038;2022-12-07T10:05:25;27.13;;;16.77;;
19189;SDS011;9727;50.200;19.038;2022-12-07T10:07:52;25.47;;;16.03;;
19189;SDS011;9727;50.200;19.038;2022-12-07T10:10:19;26.13;;;16.30;;
19189;SDS011;9727;50.200;19.038;2022-12-07T10:12:54;27.03;;;16.43;;
19189;SDS011;9727;50.200;19.038;2022-12-07T10:15:22;26.83;;;16.40;;
19189;SDS011;9727;50.200;19.038;2022-12-07T10:17:50;26.53;;;15.53;;
19189;SDS011;9727;50.200;19.038;2022-12-07T10:20:21;22.57;;;14.40;;
19189;SDS011;9727;50.200;19.038;2022-12-07T10:23:01;21.47;;;14.60;;
19189;SDS011;9727;50.200;19.038;2022-12-07T10:25:30;19.93;;;12.50;;
19189;SDS011;9727;50.200;19.038;2022-12-07T10:28:10;19.70;;;13.13;;
19189;SDS011;9727;50.200;19.038;2022-12-07T10:30:50;21.93;;;14.00;;
19189;SDS011;9727;50.200;19.038;2022-12-07T10:33:27;22.43;;;14.30;;
19189;SDS011;9727;50.200;19.038;2022-12-07T10:35:54;21.60;;;14.63;;
19189;SDS011;9727;50.200;19.038;2022-12-07T10:38:21;22.57;;;14.87;;
19189;SDS011;9727;50.200;19.038;2022-12-07T10:40:47;21.47;;;14.23;;
19189;SDS011;9727;50.200;19.038;2022-12-07T10:43:28;18.90;;;13.10;;
19189;SDS011;9727;50.200;19.038;2022-12-07T10:48:45;15.90;;;10.80;;
19189;SDS011;9727;50.200;19.038;2022-12-07T10:51:17;16.60;;;10.57;;
19189;SDS011;9727;50.200;19.038;2022-12-07T10:53:52;13.80;;;9.53;;
19189;SDS011;9727;50.200;19.038;2022-12-07T10:56:27;13.17;;;9.53;;
19189;SDS011;9727;50.200;19.038;2022-12-07T10:59:03;14.80;;;9.37;;
19189;SDS011;9727;50.200;19.038;2022-12-07T11:01:36;15.53;;;9.33;;
19189;SDS011;9727;50.200;19.038;2022-12-07T11:04:17;13.50;;;8.93;;
19189;SDS011;9727;50.200;19.038;2022-12-07T11:06:46;14.60;;;8.47;;
19189;SDS011;9727;50.200;19.038;2022-12-07T11:12:05;12.60;;;8.27;;
19189;SDS011;9727;50.200;19.038;2022-12-07T11:14:40;14.37;;;8.80;;
19189;SDS011;9727;50.200;19.038;2022-12-07T11:17:10;12.10;;;8.47;;
19189;SDS011;9727;50.200;19.038;2022-12-07T11:19:49;14.50;;;9.03;;
19189;SDS011;9727;50.200;19.038;2022-12-07T11:22:20;16.37;;;9.03;;
19189;SDS011;9727;50.200;19.038;2022-12-07T11:24:50;13.70;;;8.30;;
19189;SDS011;9727;50.200;19.038;2022-12-07T11:27:21;15.30;;;8.80;;
19189;SDS011;9727;50.200;19.038;2022-12-07T11:29:53;13.93;;;8.10;;
19189;SDS011;9727;50.200;19.038;2022-12-07T11:32:34;15.53;;;9.23;;
19189;SDS011;9727;50.200;19.038;2022-12-07T11:35:10;14.23;;;8.97;;
19189;SDS011;9727;50.200;19.038;2022-12-07T11:37:37;14.73;;;8.60;;
19189;SDS011;9727;50.200;19.038;2022-12-07T11:40:13;14.33;;;8.73;;
19189;SDS011;9727;50.200;19.038;2022-12-07T11:42:44;12.57;;;8.50;;
19189;SDS011;9727;50.200;19.038;2022-12-07T11:45:13;14.30;;;8.53;;
19189;SDS011;9727;50.200;19.038;2022-12-07T11:47:46;15.07;;;8.57;;
19189;SDS011;9727;50.200;19.038;2022-12-07T11:50:23;12.50;;;8.60;;
19189;SDS011;9727;50.200;19.038;2022-12-07T11:52:54;12.87;;;8.63;;
19189;SDS011;9727;50.200;19.038;2022-12-07T11:55:24;16.63;;;8.50;;
19189;SDS011;9727;50.200;19.038;2022-12-07T11:57:54;10.97;;;7.80;;
19189;SDS011;9727;50.200;19.038;2022-12-07T12:00:24;12.20;;;7.07;;
19189;SDS011;9727;50.200;19.038;2022-12-07T12:02:56;12.60;;;7.43;;
19189;SDS011;9727;50.200;19.038;2022-12-07T12:05:26;13.63;;;7.27;;
19189;SDS011;9727;50.200;19.038;2022-12-07T12:07:56;10.20;;;6.97;;
19189;SDS011;9727;50.200;19.038;2022-12-07T12:10:27;9.27;;;6.43;;
19189;SDS011;9727;50.200;19.038;2022-12-07T12:15:42;10.30;;;6.97;;
19189;SDS011;9727;50.200;19.038;2022-12-07T12:18:20;10.67;;;6.70;;
19189;SDS011;9727;50.200;19.038;2022-12-07T12:21:00;9.33;;;7.03;;
19189;SDS011;9727;50.200;19.038;2022-12-07T12:23:29;10.47;;;7.13;;
19189;SDS011;9727;50.200;19.038;2022-12-07T12:26:03;11.40;;;8.00;;
19189;SDS011;9727;50.200;19.038;2022-12-07T12:28:32;11.23;;;7.17;;
19189;SDS011;9727;50.200;19.038;2022-12-07T12:31:10;9.77;;;6.50;;
19189;SDS011;9727;50.200;19.038;2022-12-07T12:33:38;11.77;;;7.40;;
19189;SDS011;9727;50.200;19.038;2022-12-07T12:39:10;10.10;;;6.53;;
19189;SDS011;9727;50.200;19.038;2022-12-07T12:41:51;9.83;;;6.50;;
19189;SDS011;9727;50.200;19.038;2022-12-07T12:47:41;11.67;;;7.43;;
19189;SDS011;9727;50.200;19.038;2022-12-07T12:52:57;11.77;;;7.10;;
19189;SDS011;9727;50.200;19.038;2022-12-07T12:58:40;11.73;;;8.03;;
19189;SDS011;9727;50.200;19.038;2022-12-07T13:04:14;13.30;;;7.43;;
19189;SDS011;9727;50.200;19.038;2022-12-07T13:06:44;14.67;;;7.50;;
19189;SDS011;9727;50.200;19.038;2022-12-07T13:09:17;12.43;;;7.87;;
19189;SDS011;9727;50.200;19.038;2022-12-07T13:11:46;11.80;;;7.27;;
19189;SDS011;9727;50.200;19.038;2022-12-07T13:17:11;12.70;;;7.43;;
19189;SDS011;9727;50.200;19.038;2022-12-07T13:25:09;11.47;;;6.67;;
19189;SDS011;9727;50.200;19.038;2022-12-07T13:27:38;11.30;;;6.53;;
19189;SDS011;9727;50.200;19.038;2022-12-07T13:30:09;9.93;;;6.73;;
19189;SDS011;9727;50.200;19.038;2022-12-07T13:32:41;9.07;;;6.20;;
19189;SDS011;9727;50.200;19.038;2022-12-07T13:37:49;10.70;;;6.37;;
19189;SDS011;9727;50.200;19.038;2022-12-07T13:40:17;9.97;;;6.03;;
19189;SDS011;9727;50.200;19.038;2022-12-07T13:42:45;9.33;;;6.07;;
19189;SDS011;9727;50.200;19.038;2022-12-07T13:45:19;10.70;;;6.10;;
19189;SDS011;9727;50.200;19.038;2022-12-07T13:47:48;11.97;;;6.50;;
19189;SDS011;9727;50.200;19.038;2022-12-07T13:50:22;11.00;;;6.57;;
19189;SDS011;9727;50.200;19.038;2022-12-07T13:52:49;8.70;;;6.03;;
19189;SDS011;9727;50.200;19.038;2022-12-07T13:55:16;11.67;;;6.23;;
19189;SDS011;9727;50.200;19.038;2022-12-07T13:57:43;11.67;;;6.70;;
19189;SDS011;9727;50.200;19.038;2022-12-07T14:00:14;11.40;;;6.87;;
19189;SDS011;9727;50.200;19.038;2022-12-07T14:02:53;12.03;;;6.30;;
19189;SDS011;9727;50.200;19.038;2022-12-07T14:05:24;10.17;;;6.57;;
19189;SDS011;9727;50.200;19.038;2022-12-07T14:07:53;11.47;;;6.77;;
19189;SDS011;9727;50.200;19.038;2022-12-07T14:10:24;13.70;;;7.70;;
19189;SDS011;9727;50.200;19.038;2022-12-07T14:12:53;11.47;;;6.87;;
19189;SDS011;9727;50.200;19.038;2022-12-07T14:15:21;11.83;;;6.90;;
19189;SDS011;9727;50.200;19.038;2022-12-07T14:17:52;13.10;;;7.60;;
19189;SDS011;9727;50.200;19.038;2022-12-07T14:20:30;13.47;;;6.73;;
19189;SDS011;9727;50.200;19.038;2022-12-07T14:22:59;14.23;;;7.70;;
19189;SDS011;9727;50.200;19.038;2022-12-07T14:28:25;13.00;;;6.83;;
19189;SDS011;9727;50.200;19.038;2022-12-07T14:31:08;14.50;;;7.37;;
19189;SDS011;9727;50.200;19.038;2022-12-07T14:33:37;13.70;;;7.10;;
19189;SDS011;9727;50.200;19.038;2022-12-07T14:36:07;15.97;;;7.93;;
19189;SDS011;9727;50.200;19.038;2022-12-07T14:38:37;11.43;;;7.10;;
19189;SDS011;9727;50.200;19.038;2022-12-07T14:41:04;11.17;;;6.60;;
19189;SDS011;9727;50.200;19.038;2022-12-07T14:43:50;13.73;;;7.50;;
19189;SDS011;9727;50.200;19.038;2022-12-07T14:46:17;12.40;;;6.63;;
19189;SDS011;9727;50.200;19.038;2022-12-07T14:48:44;12.33;;;6.60;;
19189;SDS011;9727;50.200;19.038;2022-12-07T14:51:12;13.30;;;7.20;;
19189;SDS011;9727;50.200;19.038;2022-12-07T14:53:39;14.00;;;7.10;;
19189;SDS011;9727;50.200;19.038;2022-12-07T14:56:07;14.57;;;7.87;;
19189;SDS011;9727;50.200;19.038;2022-12-07T14:58:33;16.43;;;7.43;;
19189;SDS011;9727;50.200;19.038;2022-12-07T15:01:03;11.73;;;7.30;;
19189;SDS011;9727;50.200;19.038;2022-12-07T15:03:30;13.70;;;8.13;;
19189;SDS011;9727;50.200;19.038;2022-12-07T15:05:56;18.27;;;8.67;;
19189;SDS011;9727;50.200;19.038;2022-12-07T15:08:25;16.67;;;8.40;;
19189;SDS011;9727;50.200;19.038;2022-12-07T15:10:51;14.23;;;8.40;;
19189;SDS011;9727;50.200;19.038;2022-12-07T15:13:18;17.97;;;9.47;;
19189;SDS011;9727;50.200;19.038;2022-12-07T15:16:02;15.70;;;8.57;;
19189;SDS011;9727;50.200;19.038;2022-12-07T15:18:29;18.00;;;8.77;;
19189;SDS011;9727;50.200;19.038;2022-12-07T15:20:56;18.67;;;9.07;;